createdAt,value
2018-08-23T00:00:50.793Z,20.09
2018-08-23T00:03:25.793Z,19.80
2018-08-23T00:05:55.321Z,19.75
2018-08-23T00:08:25.701Z,19.67
2018-08-23T00:10:55.188Z,19.60
2018-08-23T00:13:24.389Z,19.40
2018-08-23T00:15:53.097Z,19.50
2018-08-23T00:18:22.045Z,19.80
2018-08-23T00:20:50.781Z,19.85
2018-08-23T00:23:20.980Z,19.81
2018-08-23T00:25:49.789Z,19.80
2018-08-23T00:28:19.959Z,19.81
2018-08-23T00:30:48.457Z,19.83
2018-08-23T00:33:17.770Z,19.84
2018-08-23T00:35:47.029Z,19.81
2018-08-23T00:38:16.302Z,19.80
2018-08-23T00:40:47.613Z,19.80
2018-08-23T00:43:16.087Z,19.76
2018-08-23T00:45:44.902Z,19.66
2018-08-23T00:48:13.961Z,19.46
2018-08-23T00:50:52.792Z,19.36
2018-08-23T00:53:23.473Z,19.35
2018-08-23T00:56:04.722Z,19.37
2018-08-23T00:58:34.610Z,19.38
2018-08-23T01:01:04.656Z,19.35
2018-08-23T01:03:35.757Z,19.35
2018-08-23T01:06:09.085Z,19.31
2018-08-23T01:08:37.509Z,19.21
2018-08-23T01:11:08.511Z,19.16
2018-08-23T01:13:37.433Z,19.18
2018-08-23T01:16:06.676Z,19.16
2018-08-23T01:18:38.085Z,19.14
2018-08-23T01:21:08.844Z,19.16
2018-08-23T01:23:38.037Z,19.12
2018-08-23T01:26:08.179Z,19.13
2018-08-23T01:28:37.339Z,19.08
2018-08-23T01:31:21.817Z,19.04
2018-08-23T01:33:54.084Z,18.92
2018-08-23T01:36:27.837Z,18.83
2018-08-23T01:38:57.518Z,18.82
2018-08-23T01:41:26.230Z,18.80
2018-08-23T01:43:55.482Z,18.77
2018-08-23T01:46:31.505Z,18.72
2018-08-23T01:49:02.351Z,18.67
2018-08-23T01:51:32.463Z,18.67
2018-08-23T01:54:01.045Z,18.70
2018-08-23T01:56:30.299Z,18.61
2018-08-23T01:58:58.946Z,18.47
2018-08-23T02:01:28.226Z,18.44
2018-08-23T02:03:57.216Z,18.28
2018-08-23T02:06:32.196Z,18.24
2018-08-23T02:09:01.893Z,18.17
2018-08-23T02:11:31.357Z,18.16
2018-08-23T02:14:00.534Z,18.16
2018-08-23T02:16:39.240Z,18.17
2018-08-23T02:19:08.400Z,18.13
2018-08-23T02:21:37.078Z,18.07
2018-08-23T02:24:07.469Z,18.00
2018-08-23T02:26:36.457Z,18.09
2018-08-23T02:29:05.959Z,18.06
2018-08-23T02:31:36.063Z,18.01
2018-08-23T02:34:04.576Z,17.88
2018-08-23T02:36:36.517Z,17.85
2018-08-23T02:39:09.631Z,17.88
2018-08-23T02:41:42.073Z,17.90
2018-08-23T02:44:12.134Z,17.92
2018-08-23T02:46:42.062Z,17.85
2018-08-23T02:49:13.234Z,17.84
2018-08-23T02:51:47.203Z,18.04
2018-08-23T02:54:16.497Z,18.24
2018-08-23T02:56:50.603Z,18.33
2018-08-23T02:59:19.658Z,18.27
2018-08-23T03:01:51.097Z,18.27
2018-08-23T03:04:26.277Z,18.21
2018-08-23T03:07:04.860Z,18.15
2018-08-23T03:09:36.533Z,17.93
2018-08-23T03:12:11.282Z,17.75
2018-08-23T03:14:41.216Z,17.72
2018-08-23T03:17:17.241Z,17.76
2018-08-23T03:20:10.101Z,17.57
2018-08-23T03:22:40.545Z,17.97
2018-08-23T03:25:12.010Z,17.91
2018-08-23T03:27:45.702Z,17.83
2018-08-23T03:30:17.027Z,17.79
2018-08-23T03:32:46.381Z,17.77
2018-08-23T03:35:15.777Z,17.71
2018-08-23T03:37:44.831Z,17.61
2018-08-23T03:40:15.289Z,17.33
2018-08-23T03:42:44.917Z,17.24
2018-08-23T03:45:19.793Z,17.45
2018-08-23T03:47:51.945Z,17.47
2018-08-23T03:50:21.917Z,17.35
2018-08-23T03:52:53.375Z,17.09
2018-08-23T03:55:24.697Z,17.02
2018-08-23T03:57:58.725Z,16.98
2018-08-23T04:00:33.245Z,16.88
2018-08-23T04:03:03.514Z,16.85
2018-08-23T04:05:32.709Z,16.99
2018-08-23T04:08:01.718Z,16.91
2018-08-23T04:10:31.201Z,16.92
2018-08-23T04:13:00.549Z,16.89
2018-08-23T04:15:30.524Z,16.97
2018-08-23T04:18:02.951Z,17.00
2018-08-23T04:20:31.406Z,16.89
2018-08-23T04:22:59.778Z,16.73
2018-08-23T04:25:28.169Z,16.82
2018-08-23T04:27:56.546Z,16.72
2018-08-23T04:30:24.925Z,16.78
2018-08-23T04:32:53.301Z,16.70
2018-08-23T04:35:24.803Z,16.58
2018-08-23T04:37:53.171Z,16.68
2018-08-23T04:40:21.544Z,17.02
2018-08-23T04:42:49.977Z,17.30
2018-08-23T04:45:23.417Z,17.32
2018-08-23T04:47:57.159Z,17.31
2018-08-23T04:50:26.114Z,17.24
2018-08-23T04:52:54.637Z,17.29
2018-08-23T04:55:23.411Z,17.07
2018-08-23T04:57:51.895Z,17.02
2018-08-23T05:00:20.321Z,16.93
2018-08-23T05:02:48.734Z,17.02
2018-08-23T05:05:17.210Z,17.03
2018-08-23T05:07:45.674Z,16.99
2018-08-23T05:10:14.258Z,16.97
2018-08-23T05:12:42.849Z,16.92
2018-08-23T05:15:11.361Z,16.94
2018-08-23T05:17:39.813Z,17.11
2018-08-23T05:20:08.598Z,17.22
2018-08-23T05:22:37.026Z,17.21
2018-08-23T05:25:14.261Z,17.14
2018-08-23T05:27:59.121Z,17.10
2018-08-23T05:30:28.700Z,17.25
2018-08-23T05:33:02.437Z,17.30
2018-08-23T05:35:31.522Z,17.47
2018-08-23T05:38:00.618Z,17.63
2018-08-23T05:40:33.596Z,17.72
2018-08-23T05:43:02.057Z,17.84
2018-08-23T05:45:35.865Z,17.95
2018-08-23T05:48:20.118Z,18.11
2018-08-23T05:50:48.571Z,18.16
2018-08-23T05:53:18.000Z,18.26
2018-08-23T05:55:48.982Z,18.42
2018-08-23T05:58:23.497Z,18.40
2018-08-23T06:00:52.108Z,18.50
2018-08-23T06:03:26.954Z,18.61
2018-08-23T06:05:56.359Z,18.75
2018-08-23T06:08:24.885Z,18.95
2018-08-23T06:10:58.530Z,18.96
2018-08-23T06:13:26.942Z,19.06
2018-08-23T06:15:56.622Z,19.16
2018-08-23T06:18:25.920Z,19.25
2018-08-23T06:20:54.357Z,19.37
2018-08-23T06:23:27.245Z,19.52
2018-08-23T06:25:55.650Z,19.72
2018-08-23T06:28:26.886Z,19.84
2018-08-23T06:30:56.209Z,19.98
2018-08-23T06:33:36.429Z,20.13
2018-08-23T06:36:04.981Z,20.36
2018-08-23T06:38:34.534Z,20.54
2018-08-23T06:41:04.276Z,20.79
2018-08-23T06:43:33.421Z,20.98
2018-08-23T06:46:02.575Z,21.11
2018-08-23T06:48:31.330Z,21.18
2018-08-23T06:51:00.933Z,21.49
2018-08-23T06:53:39.409Z,21.34
2018-08-23T06:56:07.957Z,21.68
2018-08-23T06:58:36.462Z,21.61
2018-08-23T07:01:09.019Z,21.89
2018-08-23T07:03:51.013Z,22.17
2018-08-23T07:06:20.105Z,22.46
2018-08-23T07:08:48.533Z,22.29
2018-08-23T07:11:21.921Z,22.37
2018-08-23T07:13:56.370Z,22.63
2018-08-23T07:16:24.947Z,22.68
2018-08-23T07:18:53.445Z,22.87
2018-08-23T07:21:21.952Z,22.73
2018-08-23T07:23:50.318Z,22.72
2018-08-23T07:26:18.801Z,22.86
2018-08-23T07:28:47.265Z,22.93
2018-08-23T07:31:15.657Z,22.97
2018-08-23T07:33:46.124Z,23.13
2018-08-23T07:36:26.955Z,23.13
2018-08-23T07:38:55.580Z,23.24
2018-08-23T07:41:23.966Z,23.30
2018-08-23T07:43:52.429Z,23.29
2018-08-23T07:46:29.715Z,23.34
2018-08-23T07:48:58.409Z,23.43
2018-08-23T07:51:26.819Z,23.36
2018-08-23T07:53:57.649Z,23.63
2018-08-23T07:56:28.197Z,23.81
2018-08-23T07:58:57.663Z,23.60
2018-08-23T08:01:31.105Z,23.47
2018-08-23T08:04:00.295Z,23.74
2018-08-23T08:06:29.243Z,23.83
2018-08-23T08:08:59.197Z,23.84
2018-08-23T08:11:29.795Z,23.97
2018-08-23T08:14:13.323Z,24.03
2018-08-23T08:16:41.741Z,23.91
2018-08-23T08:19:10.156Z,23.91
2018-08-23T08:21:38.622Z,24.03
2018-08-23T08:24:06.991Z,24.10
2018-08-23T08:26:35.414Z,24.07
2018-08-23T08:29:03.777Z,24.00
2018-08-23T08:31:32.196Z,24.05
2018-08-23T08:34:00.808Z,24.04
2018-08-23T08:36:31.340Z,24.19
2018-08-23T08:39:00.332Z,24.29
2018-08-23T08:41:33.529Z,24.69
2018-08-23T08:44:02.101Z,25.21
2018-08-23T08:46:30.514Z,25.02
2018-08-23T08:48:58.922Z,25.00
2018-08-23T08:51:32.373Z,25.23
2018-08-23T08:54:03.148Z,25.08
2018-08-23T08:56:36.877Z,25.16
2018-08-23T08:59:05.310Z,25.01
2018-08-23T09:01:33.744Z,25.17
2018-08-23T09:04:02.163Z,25.07
2018-08-23T09:06:46.989Z,25.33
2018-08-23T09:09:40.967Z,25.59
2018-08-23T09:12:11.441Z,25.67
2018-08-23T09:14:40.799Z,25.85
2018-08-23T09:17:39.833Z,25.63
2018-08-23T09:20:10.321Z,25.73
2018-08-23T09:22:41.097Z,25.67
2018-08-23T09:25:12.220Z,25.75
2018-08-23T09:27:40.653Z,25.89
2018-08-23T09:30:14.433Z,26.02
2018-08-23T09:32:42.866Z,25.94
2018-08-23T09:35:11.718Z,25.77
2018-08-23T09:37:40.739Z,26.01
2018-08-23T09:40:09.340Z,26.05
2018-08-23T09:42:38.437Z,25.83
2018-08-23T09:45:13.673Z,25.83
2018-08-23T09:47:42.325Z,25.99
2018-08-23T09:50:10.794Z,26.17
2018-08-23T09:52:43.166Z,26.22
2018-08-23T09:55:12.874Z,26.22
2018-08-23T09:57:41.707Z,26.47
2018-08-23T10:00:12.742Z,26.40
2018-08-23T10:02:46.355Z,26.57
2018-08-23T10:05:20.178Z,26.78
2018-08-23T10:07:53.961Z,26.47
2018-08-23T10:10:27.737Z,26.82
2018-08-23T10:13:01.425Z,26.82
2018-08-23T10:15:34.972Z,26.73
2018-08-23T10:18:08.725Z,26.75
2018-08-23T10:20:45.388Z,26.91
2018-08-23T10:23:16.691Z,26.86
2018-08-23T10:25:46.325Z,27.05
2018-08-23T10:28:15.979Z,27.23
2018-08-23T10:30:44.687Z,27.31
2018-08-23T10:33:13.081Z,27.29
2018-08-23T10:35:46.738Z,27.25
2018-08-23T10:38:16.772Z,27.29
2018-08-23T10:40:46.221Z,27.41
2018-08-23T10:43:15.155Z,27.53
2018-08-23T10:45:43.843Z,27.49
2018-08-23T10:48:16.598Z,27.56
2018-08-23T10:50:45.947Z,27.63
2018-08-23T10:53:14.782Z,27.40
2018-08-23T10:55:43.766Z,27.50
2018-08-23T10:58:12.184Z,27.41
2018-08-23T11:00:40.627Z,27.46
2018-08-23T11:03:09.037Z,27.82
2018-08-23T11:05:37.526Z,27.89
2018-08-23T11:08:11.230Z,28.07
2018-08-23T11:10:44.922Z,28.51
2018-08-23T11:13:18.533Z,28.43
2018-08-23T11:15:46.947Z,28.76
2018-08-23T11:18:20.589Z,28.53
2018-08-23T11:20:50.361Z,28.36
2018-08-23T11:23:23.912Z,28.33
2018-08-23T11:25:52.389Z,28.61
2018-08-23T11:28:21.437Z,28.90
2018-08-23T11:30:50.482Z,28.81
2018-08-23T11:33:18.925Z,28.88
2018-08-23T11:35:47.378Z,28.77
2018-08-23T11:38:15.843Z,29.03
2018-08-23T11:40:44.254Z,29.28
2018-08-23T11:43:12.678Z,29.43
2018-08-23T11:45:41.109Z,29.60
2018-08-23T11:48:09.586Z,29.89
2018-08-23T11:50:38.843Z,29.67
2018-08-23T11:53:07.310Z,29.66
2018-08-23T12:00:22.610Z,29.15
2018-08-23T12:02:58.662Z,28.76
2018-08-23T12:05:27.694Z,28.58
2018-08-23T12:07:57.440Z,28.68
2018-08-23T12:10:25.898Z,28.73
2018-08-23T12:13:05.513Z,28.95
2018-08-23T12:15:34.037Z,28.80
2018-08-23T12:18:02.557Z,28.94
2018-08-23T12:20:30.970Z,28.94
2018-08-23T12:22:59.380Z,29.17
2018-08-23T12:25:27.828Z,29.19
2018-08-23T12:28:00.081Z,29.16
2018-08-23T12:30:28.650Z,29.55
2018-08-23T12:32:57.082Z,29.42
2018-08-23T12:35:26.207Z,29.39
2018-08-23T12:38:01.594Z,29.29
2018-08-23T12:40:36.833Z,28.95
2018-08-23T12:43:08.660Z,28.84
2018-08-23T12:45:39.933Z,28.83
2018-08-23T12:48:18.273Z,29.42
2018-08-23T12:50:46.675Z,29.32
2018-08-23T12:53:15.211Z,29.58
2018-08-23T12:55:43.577Z,29.76
2018-08-23T12:58:13.125Z,29.70
2018-08-23T13:00:42.697Z,30.26
2018-08-23T13:03:11.154Z,30.11
2018-08-23T13:05:39.900Z,30.56
2018-08-23T13:08:08.345Z,30.37
2018-08-23T13:10:37.192Z,30.26
2018-08-23T13:13:05.741Z,30.46
2018-08-23T13:15:34.147Z,30.24
2018-08-23T13:18:03.078Z,30.06
2018-08-23T13:20:31.459Z,30.08
2018-08-23T13:22:59.836Z,29.84
2018-08-23T13:25:29.930Z,30.36
2018-08-23T13:27:58.333Z,29.59
2018-08-23T13:30:26.716Z,29.62
2018-08-23T13:32:55.195Z,30.26
2018-08-23T13:35:24.763Z,31.20
2018-08-23T13:37:53.182Z,31.75
2018-08-23T13:40:21.588Z,32.09
2018-08-23T13:42:53.293Z,32.16
2018-08-23T13:45:21.750Z,31.80
2018-08-23T13:47:50.157Z,31.24
2018-08-23T13:50:18.593Z,31.23
2018-08-23T13:52:47.019Z,31.60
2018-08-23T13:55:15.444Z,31.88
2018-08-23T13:57:43.946Z,32.44
2018-08-23T14:00:43.210Z,32.64
2018-08-23T14:03:12.189Z,33.12
2018-08-23T14:05:41.537Z,32.08
2018-08-23T14:08:10.401Z,32.04
2018-08-23T14:13:32.484Z,31.45
2018-08-23T14:16:04.414Z,30.21
2018-08-23T14:18:34.190Z,29.59
2018-08-23T14:21:02.702Z,29.37
2018-08-23T14:23:31.105Z,29.91
2018-08-23T14:25:59.570Z,30.97
2018-08-23T14:28:27.976Z,31.37
2018-08-23T14:30:56.418Z,31.89
2018-08-23T14:33:24.825Z,30.97
2018-08-23T14:35:53.349Z,31.00
2018-08-23T14:38:22.042Z,31.77
2018-08-23T14:40:50.502Z,32.46
2018-08-23T14:43:18.917Z,31.67
2018-08-23T14:45:47.377Z,31.00
2018-08-23T14:48:17.510Z,30.22
2018-08-23T14:50:50.148Z,30.30
2018-08-23T14:53:23.984Z,30.34
2018-08-23T14:55:57.515Z,30.63
2018-08-23T14:58:26.056Z,30.88
2018-08-23T15:00:54.538Z,31.89
2018-08-23T15:03:30.954Z,32.29
2018-08-23T15:05:59.441Z,32.54
2018-08-23T15:08:27.898Z,32.05
2018-08-23T15:10:56.727Z,31.86
2018-08-23T15:13:25.168Z,31.78
2018-08-23T15:15:54.127Z,30.56
2018-08-23T15:18:23.120Z,30.82
2018-08-23T15:20:52.011Z,30.43
2018-08-23T15:23:20.436Z,29.57
2018-08-23T15:25:48.894Z,29.93
2018-08-23T15:28:17.347Z,30.31
2018-08-23T15:30:45.793Z,30.91
2018-08-23T15:33:14.215Z,30.90
2018-08-23T15:35:42.717Z,29.93
2018-08-23T15:38:11.194Z,29.40
2018-08-23T15:40:39.635Z,28.73
2018-08-23T15:43:08.050Z,28.78
2018-08-23T15:45:36.518Z,28.84
2018-08-23T15:48:05.304Z,28.99
2018-08-23T15:50:33.697Z,29.52
2018-08-23T15:53:02.086Z,29.40
2018-08-23T15:55:30.556Z,29.50
2018-08-23T15:57:58.906Z,29.71
2018-08-23T16:00:31.427Z,29.94
2018-08-23T16:02:59.799Z,29.79
2018-08-23T16:05:28.194Z,29.56
2018-08-23T16:07:56.574Z,29.92
2018-08-23T16:10:25.049Z,29.39
2018-08-23T16:12:53.362Z,29.13
2018-08-23T16:15:23.409Z,28.88
2018-08-23T16:17:57.278Z,28.79
2018-08-23T16:20:30.947Z,28.67
2018-08-23T16:22:59.321Z,29.24
2018-08-23T16:25:27.755Z,29.27
2018-08-23T16:27:56.097Z,28.91
2018-08-23T16:30:24.529Z,28.51
2018-08-23T16:32:52.917Z,27.89
2018-08-23T16:35:21.303Z,27.59
2018-08-23T16:37:49.712Z,27.82
2018-08-23T16:40:23.377Z,27.46
2018-08-23T16:42:51.805Z,27.19
2018-08-23T16:45:20.190Z,27.00
2018-08-23T16:47:48.623Z,26.95
2018-08-23T16:50:16.993Z,26.75
2018-08-23T16:52:45.441Z,26.48
2018-08-23T16:55:13.814Z,26.36
2018-08-23T16:57:42.216Z,26.37
2018-08-23T17:00:10.626Z,26.20
2018-08-23T17:02:39.226Z,25.87
2018-08-23T17:05:07.597Z,25.85
2018-08-23T17:07:36.017Z,25.85
2018-08-23T17:10:04.522Z,25.75
2018-08-23T17:12:32.886Z,25.72
2018-08-23T17:15:01.614Z,25.74
2018-08-23T17:17:31.941Z,25.82
2018-08-23T17:20:00.319Z,25.74
2018-08-23T17:22:29.453Z,25.53
2018-08-23T17:24:57.986Z,25.50
2018-08-23T17:27:26.653Z,25.44
2018-08-23T17:29:55.047Z,25.30
2018-08-23T17:32:23.913Z,25.20
2018-08-23T17:34:53.779Z,25.17
2018-08-23T17:37:22.529Z,25.12
2018-08-23T17:39:51.836Z,24.94
2018-08-23T17:42:25.309Z,24.93
2018-08-23T17:44:53.878Z,24.99
2018-08-23T17:47:28.918Z,24.90
2018-08-23T17:49:57.829Z,24.72
2018-08-23T17:52:27.291Z,24.77
2018-08-23T17:54:56.024Z,24.79
2018-08-23T17:57:25.103Z,24.71
2018-08-23T17:59:56.184Z,24.57
2018-08-23T18:02:24.934Z,24.37
2018-08-23T18:04:54.118Z,24.39
2018-08-23T18:07:23.134Z,24.36
2018-08-23T18:09:54.111Z,24.26
2018-08-23T18:12:23.621Z,24.25
2018-08-23T18:14:52.539Z,24.23
2018-08-23T18:17:21.818Z,24.15
2018-08-23T18:19:50.622Z,24.04
2018-08-23T18:22:24.620Z,23.96
2018-08-23T18:24:53.378Z,23.88
2018-08-23T18:27:23.195Z,23.88
2018-08-23T18:29:56.660Z,23.77
2018-08-23T18:32:26.376Z,23.72
2018-08-23T18:34:55.905Z,23.65
2018-08-23T18:37:24.739Z,23.60
2018-08-23T18:39:57.068Z,23.51
2018-08-23T18:42:25.914Z,23.48
2018-08-23T18:44:55.997Z,23.42
2018-08-23T18:47:25.850Z,23.41
2018-08-23T18:49:55.989Z,23.31
2018-08-23T18:52:25.126Z,23.28
2018-08-23T18:54:53.965Z,23.18
2018-08-23T18:57:23.766Z,23.15
2018-08-23T18:59:53.703Z,23.15
2018-08-23T19:02:24.840Z,23.06
2018-08-23T19:04:54.453Z,23.02
2018-08-23T19:07:28.882Z,22.95
2018-08-23T19:10:00.942Z,22.86
2018-08-23T19:12:30.929Z,22.83
2018-08-23T19:15:01.323Z,22.78
2018-08-23T19:17:36.396Z,22.71
2018-08-23T19:20:06.697Z,22.62
2018-08-23T19:22:35.725Z,22.61
2018-08-23T19:25:04.962Z,22.58
2018-08-23T19:27:34.063Z,22.48
2018-08-23T19:30:03.288Z,22.41
2018-08-23T19:32:32.085Z,22.39
2018-08-23T19:35:01.140Z,22.38
2018-08-23T19:37:29.973Z,22.31
2018-08-23T19:39:58.574Z,22.26
2018-08-23T19:42:27.989Z,22.22
2018-08-23T19:45:01.358Z,22.16
2018-08-23T19:47:35.101Z,22.16
2018-08-23T19:50:08.062Z,22.06
2018-08-23T19:52:37.644Z,22.02
2018-08-23T19:55:07.634Z,21.96
2018-08-23T19:57:50.295Z,21.89
2018-08-23T20:00:20.366Z,21.78
2018-08-23T20:02:49.617Z,21.61
2018-08-23T20:05:24.067Z,21.71
2018-08-23T20:07:52.632Z,21.51
2018-08-23T20:10:21.978Z,21.44
2018-08-23T20:12:51.154Z,21.24
2018-08-23T20:15:24.789Z,21.20
2018-08-23T20:17:57.126Z,21.44
2018-08-23T20:20:26.590Z,21.49
2018-08-23T20:22:56.423Z,21.56
2018-08-23T20:25:27.407Z,21.62
2018-08-23T20:27:56.108Z,21.65
2018-08-23T20:30:25.086Z,21.64
2018-08-23T20:32:54.376Z,21.55
2018-08-23T20:35:23.838Z,21.46
2018-08-23T20:37:52.518Z,21.39
2018-08-23T20:40:22.686Z,21.31
2018-08-23T20:42:52.198Z,21.27
2018-08-23T20:45:20.766Z,21.24
2018-08-23T20:47:50.563Z,21.18
2018-08-23T20:50:19.475Z,21.10
2018-08-23T20:52:48.502Z,21.04
2018-08-23T20:55:17.637Z,20.88
2018-08-23T20:57:46.366Z,20.93
2018-08-23T21:00:21.681Z,20.85
2018-08-23T21:02:50.565Z,20.77
2018-08-23T21:05:20.750Z,20.75
2018-08-23T21:07:49.956Z,20.76
2018-08-23T21:10:19.914Z,20.81
2018-08-23T21:12:50.765Z,20.81
2018-08-23T21:15:20.550Z,20.72
2018-08-23T21:17:49.725Z,20.66
2018-08-23T21:20:22.624Z,20.62
2018-08-23T21:22:51.902Z,20.57
2018-08-23T21:25:20.499Z,20.53
2018-08-23T21:27:49.943Z,20.51
2018-08-23T21:30:20.003Z,20.48
2018-08-23T21:32:49.210Z,20.43
2018-08-23T21:35:18.069Z,20.43
2018-08-23T21:37:47.718Z,20.43
2018-08-23T21:40:17.350Z,20.42
2018-08-23T21:42:45.922Z,20.39
2018-08-23T21:45:15.565Z,20.42
2018-08-23T21:47:45.229Z,20.46
2018-08-23T21:50:15.198Z,20.58
2018-08-23T21:52:45.057Z,20.64
2018-08-23T21:55:14.349Z,20.64
2018-08-23T21:57:43.413Z,20.64
2018-08-23T22:00:12.725Z,20.59
2018-08-23T22:02:43.903Z,20.51
2018-08-23T22:05:13.301Z,20.39
2018-08-23T22:07:42.556Z,20.29
2018-08-23T22:10:18.785Z,20.23
2018-08-23T22:12:52.066Z,20.13
2018-08-23T22:15:21.309Z,20.08
2018-08-23T22:17:51.086Z,20.04
2018-08-23T22:20:20.840Z,20.00
2018-08-23T22:22:49.985Z,20.03
2018-08-23T22:25:19.217Z,20.05
2018-08-23T22:27:47.654Z,20.08
2018-08-23T22:30:16.352Z,20.06
2018-08-23T22:32:45.385Z,19.89
2018-08-23T22:35:32.625Z,19.85
2018-08-23T22:38:02.532Z,19.73
2018-08-23T22:40:31.548Z,19.57
2018-08-23T22:43:01.910Z,19.38
2018-08-23T22:45:35.744Z,19.45
2018-08-23T22:48:05.809Z,19.37
2018-08-23T22:50:34.490Z,19.37
2018-08-23T22:53:03.139Z,19.37
2018-08-23T22:55:32.389Z,19.41
2018-08-23T22:58:01.285Z,19.36
2018-08-23T23:00:36.058Z,19.26
2018-08-23T23:03:09.969Z,19.19
2018-08-23T23:05:43.049Z,19.15
2018-08-23T23:08:12.353Z,19.27
2018-08-23T23:10:41.329Z,19.31
2018-08-23T23:13:10.086Z,19.19
2018-08-23T23:15:39.605Z,19.17
2018-08-23T23:18:08.777Z,19.17
2018-08-23T23:20:37.296Z,19.16
2018-08-23T23:23:05.989Z,19.39
2018-08-23T23:25:35.582Z,19.49
2018-08-23T23:28:04.428Z,19.47
2018-08-23T23:30:33.836Z,19.49
2018-08-23T23:33:02.460Z,19.45
2018-08-23T23:35:31.640Z,19.45
2018-08-23T23:38:00.886Z,19.45
2018-08-23T23:40:30.197Z,19.44
2018-08-23T23:42:58.830Z,19.45
2018-08-23T23:45:28.565Z,19.47
2018-08-23T23:47:58.202Z,19.54
2018-08-23T23:50:26.857Z,19.62
2018-08-23T23:52:55.954Z,19.72
2018-08-23T23:55:25.289Z,19.76
2018-08-23T23:57:53.998Z,19.74
